Time;durP1;ratioP1;P1;durP2;ratioP2;P2;SDS_P1;SDS_P2;PMS_P1;PMS_P2;Temp;Humidity;BMP_temperature;BMP_pressure;BME280_temperature;BME280_humidity;BME280_pressure;Samples;Min_cycle;Max_cycle;Signal;HPM_P1;HPM_P2
2023/02/26 00:00:34;;;;;;;2.23;0.50;;;;;;;-0.41;100.00;100140.88;5021001;28;20037;-76
2023/02/26 00:03:00;;;;;;;0.93;0.50;;;;;;;-0.42;100.00;100129.59;5013211;28;20051;-76
2023/02/26 00:05:25;;;;;;;4.27;0.57;;;;;;;-0.42;100.00;100133.91;5020930;28;20063;-76
2023/02/26 00:07:52;;;;;;;1.57;0.47;;;;;;;-0.38;100.00;100140.97;5024270;28;20108;-76
2023/02/26 00:10:17;;;;;;;1.33;0.60;;;;;;;-0.43;100.00;100139.94;5022573;28;20072;-76
2023/02/26 00:12:43;;;;;;;1.30;0.50;;;;;;;-0.43;100.00;100150.31;5021304;28;20471;-76
2023/02/26 00:15:13;;;;;;;1.77;0.57;;;;;;;-0.41;100.00;100146.94;5022422;28;20084;-76
2023/02/26 00:18:01;;;;;;;3.33;0.60;;;;;;;-0.40;100.00;100158.19;5011301;28;20033;-76
2023/02/26 00:20:26;;;;;;;2.07;0.60;;;;;;;-0.48;100.00;100161.41;5017906;28;20511;-76
2023/02/26 00:22:52;;;;;;;1.67;0.40;;;;;;;-0.42;100.00;100165.91;5022013;28;20033;-76
2023/02/26 00:25:17;;;;;;;1.43;0.50;;;;;;;-0.40;100.00;100158.19;5021477;28;20703;-76
2023/02/26 00:27:43;;;;;;;1.50;0.53;;;;;;;-0.37;100.00;100161.75;5025146;28;20080;-76
2023/02/26 00:30:09;;;;;;;1.23;0.43;;;;;;;-0.42;100.00;100171.09;5011548;28;20057;-76
2023/02/26 00:32:35;;;;;;;1.70;0.40;;;;;;;-0.35;100.00;100161.81;5012902;28;20076;-76
2023/02/26 00:35:03;;;;;;;1.90;0.57;;;;;;;-0.37;100.00;100171.25;5011392;28;20033;-76
2023/02/26 00:37:47;;;;;;;1.30;0.60;;;;;;;-0.43;100.00;100171.94;5023169;28;20569;-76
2023/02/26 00:40:21;;;;;;;1.30;0.50;;;;;;;-0.38;100.00;100175.56;5020810;28;20030;-76
2023/02/26 00:42:47;;;;;;;1.87;0.93;;;;;;;-0.40;100.00;100178.94;5020609;28;20042;-76
2023/02/26 00:45:13;;;;;;;4.80;0.80;;;;;;;-0.38;100.00;100179.88;5013326;28;20048;-76
2023/02/26 00:47:47;;;;;;;3.43;0.83;;;;;;;-0.43;100.00;100184.03;5022882;28;20481;-76
2023/02/26 00:50:16;;;;;;;1.80;0.50;;;;;;;-0.40;100.00;100181.53;5015789;28;20456;-76
2023/02/26 00:53:06;;;;;;;3.50;0.47;;;;;;;-0.39;100.00;100184.19;5010845;28;20046;-76
2023/02/26 00:55:31;;;;;;;1.43;0.50;;;;;;;-0.43;100.00;100184.03;5017961;28;20030;-76
2023/02/26 00:57:57;;;;;;;3.57;0.70;;;;;;;-0.40;100.00;100187.59;5023362;28;20477;-76
2023/02/26 01:00:22;;;;;;;4.67;0.97;;;;;;;-0.40;100.00;100189.31;5012669;28;20064;-76
2023/02/26 01:02:48;;;;;;;0.93;0.50;;;;;;;-0.36;100.00;100189.47;5010931;28;20037;-76
2023/02/26 01:05:14;;;;;;;1.53;0.50;;;;;;;-0.34;100.00;100184.31;5022778;28;20041;-76
2023/02/26 01:07:53;;;;;;;2.63;0.70;;;;;;;-0.30;100.00;100191.38;5010287;28;20056;-76
2023/02/26 01:10:19;;;;;;;1.10;0.40;;;;;;;-0.29;100.00;100187.94;5010409;28;20059;-76
2023/02/26 01:12:44;;;;;;;2.33;0.47;;;;;;;-0.32;100.00;100193.91;5012899;28;20576;-76
2023/02/26 01:15:10;;;;;;;2.67;0.70;;;;;;;-0.27;100.00;100192.34;5012957;28;20045;-76
2023/02/26 01:18:13;;;;;;;2.07;0.60;;;;;;;-0.26;100.00;100203.63;5009418;28;20030;-76
2023/02/26 01:21:01;;;;;;;1.73;0.47;;;;;;;-0.19;100.00;100199.47;5002352;28;20541;-76
2023/02/26 01:23:31;;;;;;;1.67;0.57;;;;;;;-0.28;100.00;100211.31;5010289;28;20038;-76
2023/02/26 01:26:06;;;;;;;0.93;0.40;;;;;;;-0.27;100.00;100205.28;5013842;28;20025;-76
2023/02/26 01:28:31;;;;;;;2.90;0.80;;;;;;;-0.31;100.00;100210.38;5011708;28;20033;-76
2023/02/26 01:31:03;;;;;;;2.40;0.67;;;;;;;-0.31;100.00;100212.97;5021058;23;20052;-70
2023/02/26 01:33:39;;;;;;;1.48;0.45;;;;;;;-0.28;100.00;100215.66;5010173;28;20068;-70
2023/02/26 01:36:42;;;;;;;1.50;0.50;;;;;;;-0.32;100.00;100213.78;4977472;28;20034;-70
2023/02/26 01:39:18;;;;;;;1.63;0.53;;;;;;;-0.30;100.00;100214.69;4940151;28;20042;-70
2023/02/26 01:41:53;;;;;;;0.67;0.47;;;;;;;-0.35;100.00;100218.84;5003214;28;20038;-70
2023/02/26 01:44:38;;;;;;;1.20;0.50;;;;;;;-0.30;100.00;100225.06;5001458;28;20405;-70
2023/02/26 01:47:10;;;;;;;3.80;0.90;;;;;;;-0.32;100.00;100226.72;5010395;28;20030;-70
2023/02/26 01:49:35;;;;;;;2.40;0.57;;;;;;;-0.34;100.00;100230.97;4993980;28;20129;-70
2023/02/26 01:52:03;;;;;;;3.20;0.73;;;;;;;-0.32;100.00;100231.91;5011118;28;20125;-70
2023/02/26 01:54:37;;;;;;;2.17;0.60;;;;;;;-0.33;100.00;100232.75;5009926;28;20025;-70
2023/02/26 01:57:09;;;;;;;1.70;0.80;;;;;;;-0.37;100.00;100230.88;5009909;28;20034;-69
2023/02/26 01:59:45;;;;;;;;;;;;;;;-0.31;100.00;100244.94;4993796;28;20030;-70
2023/02/26 02:02:15;;;;;;;1.87;0.87;;;;;;;-0.35;100.00;100242.19;4998880;28;20407;-70
2023/02/26 02:04:41;;;;;;;3.03;0.87;;;;;;;-0.38;100.00;100255.06;5011088;28;20125;-70
2023/02/26 02:07:07;;;;;;;5.60;0.80;;;;;;;-0.36;100.00;100256.00;5010206;28;20365;-70
2023/02/26 02:09:32;;;;;;;1.57;0.63;;;;;;;-0.30;100.00;100258.78;4993012;28;20036;-70
2023/02/26 02:12:01;;;;;;;1.60;0.53;;;;;;;-0.27;100.00;100251.97;5010428;28;20069;-70
2023/02/26 02:14:58;;;;;;;2.03;0.73;;;;;;;-0.27;100.00;100269.25;4993431;28;20262;-70
2023/02/26 02:17:55;;;;;;;2.77;0.80;;;;;;;-0.24;100.00;100267.66;4985305;28;20382;-70
2023/02/26 02:20:27;;;;;;;2.57;0.60;;;;;;;-0.21;100.00;100266.84;5010954;28;20030;-70
2023/02/26 02:23:08;;;;;;;1.83;0.60;;;;;;;-0.20;100.00;100266.03;5009651;28;20044;-70
2023/02/26 02:26:13;;;;;;;2.93;0.93;;;;;;;-0.15;100.00;100280.06;4992566;28;20108;-70
2023/02/26 02:29:05;;;;;;;2.57;0.90;;;;;;;-0.17;100.00;100280.81;4988244;28;20497;-70
2023/02/26 02:31:48;;;;;;;2.77;0.57;;;;;;;-0.17;100.00;100284.31;5013215;28;20026;-70
2023/02/26 02:34:36;;;;;;;1.97;0.53;;;;;;;-0.15;100.00;100285.25;5010412;28;20038;-70
2023/02/26 02:37:20;;;;;;;1.23;0.70;;;;;;;-0.14;100.00;100288.72;5000685;28;20507;-70
2023/02/26 02:40:00;;;;;;;2.67;0.70;;;;;;;-0.15;100.00;100293.03;5013999;28;20399;-70
2023/02/26 02:42:34;;;;;;;4.17;0.73;;;;;;;-0.10;100.00;100298.38;5010004;28;20084;-70
2023/02/26 02:45:08;;;;;;;2.57;0.87;;;;;;;-0.06;100.00;100303.69;5011910;28;20120;-70
2023/02/26 02:47:39;;;;;;;2.87;0.90;;;;;;;-0.06;100.00;100295.91;5006327;28;20136;-70
2023/02/26 02:50:08;;;;;;;3.57;0.90;;;;;;;-0.09;100.00;100301.00;5013646;28;20037;-70
2023/02/26 02:52:43;;;;;;;1.37;0.60;;;;;;;-0.17;100.00;100307.66;5013679;28;20048;-70
2023/02/26 02:55:17;;;;;;;2.13;0.60;;;;;;;-0.13;100.00;100314.72;5013852;28;20052;-70
2023/02/26 02:57:49;;;;;;;;;;;;;;;-0.09;100.00;100316.56;4985696;28;20030;-70
2023/02/26 03:00:16;;;;;;;4.35;0.70;;;;;;;-0.11;100.00;100315.63;5013662;28;19917;-70
2023/02/26 03:03:05;;;;;;;4.17;1.43;;;;;;;-0.18;100.00;100311.09;4995772;28;20412;-70
2023/02/26 03:05:31;;;;;;;2.13;0.87;;;;;;;-0.22;100.00;100315.25;5007747;28;20026;-70
2023/02/26 03:08:10;;;;;;;3.73;1.20;;;;;;;-0.12;100.00;100319.06;5013145;28;20034;-70
2023/02/26 03:10:36;;;;;;;1.77;0.63;;;;;;;-0.15;100.00;100320.69;5013283;28;20405;-70
2023/02/26 03:13:02;;;;;;;1.53;0.63;;;;;;;-0.13;100.00;100332.88;4996161;28;20405;-70
2023/02/26 03:16:03;;;;;;;3.93;0.87;;;;;;;-0.07;100.00;100340.84;4995249;28;20026;-70
2023/02/26 03:18:56;;;;;;;2.10;1.00;;;;;;;-0.08;100.00;100339.09;5006660;28;20397;-70
2023/02/26 03:21:42;;;;;;;1.33;0.70;;;;;;;-0.13;100.00;100332.88;5006026;28;20041;-70
2023/02/26 03:24:27;;;;;;;2.43;0.97;;;;;;;-0.17;100.00;100343.09;4989227;28;20129;-70
2023/02/26 03:26:58;;;;;;;3.53;1.10;;;;;;;-0.22;100.00;100355.88;5007351;28;20068;-70
2023/02/26 03:29:34;;;;;;;4.23;0.80;;;;;;;-0.17;100.00;100356.94;4995443;28;20030;-70
2023/02/26 03:32:05;;;;;;;4.37;1.00;;;;;;;-0.18;100.00;100351.66;4984717;28;20057;-70
2023/02/26 03:34:47;;;;;;;2.97;0.90;;;;;;;-0.11;100.00;100370.09;4995601;28;20026;-71
2023/02/26 03:37:18;;;;;;;3.57;1.10;;;;;;;-0.05;100.00;100370.31;4994610;28;20288;-71
2023/02/26 03:39:47;;;;;;;2.63;0.77;;;;;;;-0.07;100.00;100377.16;4980775;28;20066;-70
2023/02/26 03:42:25;;;;;;;2.10;0.63;;;;;;;-0.08;100.00;100380.59;4995296;28;20026;-70
2023/02/26 03:45:01;;;;;;;3.97;1.10;;;;;;;-0.10;100.00;100382.25;4994993;28;20038;-71
2023/02/26 03:47:29;;;;;;;2.67;1.00;;;;;;;0.00;100.00;100388.66;4984242;28;20030;-70
2023/02/26 03:50:04;;;;;;;6.30;1.30;;;;;;;0.06;100.00;100385.38;4994846;28;20030;-70
2023/02/26 03:52:37;;;;;;;3.37;1.30;;;;;;;0.05;100.00;100394.84;5011362;28;20038;-70
2023/02/26 03:55:33;;;;;;;4.27;0.87;;;;;;;0.08;100.00;100401.84;4992016;28;20496;-71
2023/02/26 03:58:05;;;;;;;4.17;1.10;;;;;;;0.01;100.00;100399.91;5006042;28;20523;-70
2023/02/26 04:00:49;;;;;;;2.73;1.10;;;;;;;0.06;100.00;100411.31;4994820;28;20100;-70
2023/02/26 04:03:27;;;;;;;3.37;1.00;;;;;;;0.06;100.00;100426.91;4994584;28;20412;-70
2023/02/26 04:05:54;;;;;;;5.87;1.40;;;;;;;0.01;100.00;100420.66;4981591;28;20034;-71
2023/02/26 04:08:21;;;;;;;4.67;1.10;;;;;;;0.01;100.00;100423.25;4994833;28;20119;-70
2023/02/26 04:11:05;;;;;;;3.83;1.10;;;;;;;0.02;100.00;100431.06;5012050;28;20022;-70
2023/02/26 04:13:31;;;;;;;3.40;1.43;;;;;;;0.03;100.00;100413.78;5000126;28;20025;-70
2023/02/26 04:15:56;;;;;;;3.70;1.40;;;;;;;0.04;100.00;100421.63;4993687;28;20036;-70
2023/02/26 04:18:22;;;;;;;3.90;1.13;;;;;;;0.11;100.00;100427.94;4994644;28;20061;-71
2023/02/26 04:20:47;;;;;;;2.47;0.87;;;;;;;0.05;100.00;100428.59;4994029;28;20112;-70
2023/02/26 04:23:12;;;;;;;4.30;0.80;;;;;;;0.09;100.00;100439.97;4994547;28;20407;-70
2023/02/26 04:25:38;;;;;;;4.63;1.23;;;;;;;0.13;100.00;100434.94;4993998;28;20457;-71
2023/02/26 04:28:04;;;;;;;3.27;1.10;;;;;;;0.02;100.00;100440.56;4994380;28;20121;-71
2023/02/26 04:30:31;;;;;;;3.17;0.90;;;;;;;-0.04;100.00;100441.25;4994126;28;20456;-70
2023/02/26 04:32:57;;;;;;;3.47;1.00;;;;;;;-0.06;100.00;100436.00;4994390;28;20475;-70
2023/02/26 04:35:23;;;;;;;2.33;1.30;;;;;;;0.04;100.00;100446.72;5008332;28;20034;-70
2023/02/26 04:37:49;;;;;;;3.27;1.00;;;;;;;0.07;100.00;100450.28;5011380;28;20044;-70
2023/02/26 04:40:14;;;;;;;2.27;0.90;;;;;;;-0.03;100.00;100455.97;4994007;28;20044;-70
2023/02/26 04:42:40;;;;;;;3.47;1.13;;;;;;;-0.04;100.00;100454.22;4993935;28;20026;-70
2023/02/26 04:45:06;;;;;;;4.00;1.20;;;;;;;-0.03;100.00;100461.16;5004708;28;20088;-70
2023/02/26 04:47:33;;;;;;;4.83;1.20;;;;;;;-0.02;100.00;100463.81;5003493;28;20109;-70
2023/02/26 04:49:59;;;;;;;3.13;1.00;;;;;;;-0.02;100.00;100465.53;4992194;28;20153;-70
2023/02/26 04:52:25;;;;;;;2.87;1.13;;;;;;;-0.01;100.00;100468.19;4993674;28;20500;-70
2023/02/26 04:54:51;;;;;;;3.10;1.10;;;;;;;-0.04;100.00;100475.84;4993780;28;20068;-71
2023/02/26 04:57:16;;;;;;;2.80;1.10;;;;;;;-0.04;100.00;100473.25;5010994;28;20036;-70
2023/02/26 04:59:43;;;;;;;7.33;1.00;;;;;;;-0.08;100.00;100476.59;4986623;28;20456;-70
2023/02/26 05:02:08;;;;;;;3.50;1.30;;;;;;;-0.03;100.00;100487.09;4980605;28;20026;-71
2023/02/26 05:04:37;;;;;;;4.33;1.20;;;;;;;-0.01;100.00;100491.53;4980987;28;20029;-70
2023/02/26 05:07:03;;;;;;;4.17;1.37;;;;;;;-0.04;100.00;100486.22;4993251;28;20044;-70
2023/02/26 05:09:28;;;;;;;4.30;1.40;;;;;;;-0.10;100.00;100493.81;4993494;28;20037;-70
2023/02/26 05:11:53;;;;;;;3.57;1.13;;;;;;;-0.10;100.00;100496.41;4993539;28;20046;-71
2023/02/26 05:14:19;;;;;;;3.60;1.17;;;;;;;-0.16;100.00;100506.53;5011317;28;20081;-70
2023/02/26 05:16:47;;;;;;;3.67;0.90;;;;;;;-0.23;100.00;100508.03;5009524;28;20382;-70
2023/02/26 05:19:12;;;;;;;4.70;1.20;;;;;;;-0.23;100.00;100509.75;4993796;28;20041;-70
2023/02/26 05:21:38;;;;;;;4.73;0.90;;;;;;;-0.27;100.00;100511.34;4993654;28;20496;-69
2023/02/26 05:24:03;;;;;;;3.83;1.20;;;;;;;-0.20;100.00;100514.19;4993836;28;20091;-70
2023/02/26 05:26:29;;;;;;;2.97;0.93;;;;;;;-0.18;100.00;100518.59;4985637;28;20242;-70
2023/02/26 05:28:55;;;;;;;4.17;0.87;;;;;;;-0.28;100.00;100517.34;4992915;28;20508;-70
2023/02/26 05:31:20;;;;;;;3.20;0.70;;;;;;;-0.28;100.00;100524.25;4992984;28;20037;-70
2023/02/26 05:33:45;;;;;;;1.77;0.60;;;;;;;-0.27;100.00;100534.69;5011395;28;20037;-70
2023/02/26 05:36:12;;;;;;;2.60;1.10;;;;;;;-0.31;100.00;100538.00;5010604;28;20065;-70
2023/02/26 05:38:37;;;;;;;3.43;0.90;;;;;;;-0.33;100.00;100533.56;5011599;28;20396;-70
2023/02/26 05:41:02;;;;;;;1.57;0.70;;;;;;;-0.29;100.00;100535.44;5011029;28;20125;-70
2023/02/26 05:43:28;;;;;;;4.13;1.00;;;;;;;-0.35;100.00;100548.19;5011033;28;20113;-70
2023/02/26 05:45:54;;;;;;;4.10;0.97;;;;;;;-0.35;100.00;100554.25;5010572;28;20064;-70
2023/02/26 05:48:20;;;;;;;3.03;0.70;;;;;;;-0.33;100.00;100555.19;5010827;28;20053;-70
2023/02/26 05:50:46;;;;;;;4.37;0.70;;;;;;;-0.31;100.00;100552.69;5010849;28;20484;-70
2023/02/26 05:53:11;;;;;;;5.40;0.97;;;;;;;-0.34;100.00;100562.91;5011142;28;20069;-70
2023/02/26 05:55:36;;;;;;;2.20;0.60;;;;;;;-0.29;100.00;100571.75;5013270;28;20042;-70
2023/02/26 05:58:02;;;;;;;1.77;0.50;;;;;;;-0.29;100.00;100574.34;5014779;28;20040;-70
2023/02/26 06:00:27;;;;;;;2.00;0.70;;;;;;;-0.26;100.00;100582.28;5014622;28;20116;-70
2023/02/26 06:02:53;;;;;;;3.07;0.67;;;;;;;-0.28;100.00;100589.97;5014548;28;20034;-70
2023/02/26 06:05:18;;;;;;;5.67;0.63;;;;;;;-0.23;100.00;100590.16;5014065;28;20579;-70
2023/02/26 06:07:43;;;;;;;2.30;0.60;;;;;;;-0.17;100.00;100599.88;5011252;28;20065;-70
2023/02/26 06:10:10;;;;;;;3.83;0.93;;;;;;;-0.25;100.00;100594.41;5014439;28;20404;-69
2023/02/26 06:12:36;;;;;;;3.93;0.90;;;;;;;-0.25;100.00;100609.97;5014807;28;20441;-70
2023/02/26 06:15:02;;;;;;;0.80;0.30;;;;;;;-0.22;100.00;100613.53;5014569;28;20134;-70
2023/02/26 06:17:28;;;;;;;1.87;0.37;;;;;;;-0.21;100.00;100614.41;5013927;28;20030;-70
2023/02/26 06:19:53;;;;;;;2.13;0.60;;;;;;;-0.17;100.00;100607.66;5014254;28;20395;-70
2023/02/26 06:22:19;;;;;;;3.43;0.70;;;;;;;-0.13;100.00;100619.91;5014348;28;20493;-70
2023/02/26 06:24:44;;;;;;;2.97;1.57;;;;;;;-0.15;100.00;100622.47;5014048;28;20485;-70
2023/02/26 06:27:09;;;;;;;4.90;0.80;;;;;;;-0.19;100.00;100620.56;5013577;28;20168;-69
2023/02/26 06:29:36;;;;;;;5.63;1.00;;;;;;;-0.17;100.00;100624.09;5014041;28;20041;-70
2023/02/26 06:32:02;;;;;;;3.57;0.40;;;;;;;-0.12;100.00;100634.66;4999196;28;20481;-69
2023/02/26 06:34:27;;;;;;;2.63;0.63;;;;;;;-0.14;100.00;100642.38;5014232;28;20049;-70
2023/02/26 06:36:53;;;;;;;1.90;0.30;;;;;;;-0.15;100.00;100632.84;5013600;28;20034;-70
2023/02/26 06:39:18;;;;;;;3.90;0.63;;;;;;;-0.13;100.00;100646.75;5011399;28;20041;-70
2023/02/26 06:41:43;;;;;;;2.50;0.70;;;;;;;-0.15;100.00;100648.41;5013544;28;20033;-70
2023/02/26 06:44:10;;;;;;;1.07;0.40;;;;;;;-0.09;100.00;100643.44;5014081;28;20129;-70
2023/02/26 06:46:35;;;;;;;0.97;0.30;;;;;;;-0.08;100.00;100650.41;5013487;28;20045;-70
2023/02/26 06:49:01;;;;;;;2.43;0.40;;;;;;;-0.06;100.00;100647.88;5013823;28;20042;-70
2023/02/26 06:51:26;;;;;;;2.90;0.57;;;;;;;-0.08;100.00;100654.69;5013636;28;20040;-69
2023/02/26 06:53:51;;;;;;;2.97;1.17;;;;;;;-0.06;100.00;100653.94;5013876;28;20524;-70
2023/02/26 06:56:17;;;;;;;3.77;0.70;;;;;;;-0.07;100.00;100661.69;5013085;28;20041;-70
2023/02/26 06:58:42;;;;;;;2.67;0.50;;;;;;;-0.04;100.00;100657.47;5013354;28;20041;-70
2023/02/26 07:01:07;;;;;;;2.93;0.70;;;;;;;-0.02;100.00;100652.38;5013101;28;20076;-70
2023/02/26 07:03:33;;;;;;;3.23;0.57;;;;;;;-0.10;100.00;100664.16;5013671;28;20049;-70
2023/02/26 07:05:59;;;;;;;4.40;0.70;;;;;;;-0.14;100.00;100655.34;5012877;28;20056;-70
2023/02/26 07:08:24;;;;;;;1.27;0.43;;;;;;;-0.21;100.00;100663.72;5013472;28;20038;-70
2023/02/26 07:10:50;;;;;;;2.67;0.60;;;;;;;-0.20;100.00;100668.09;5013245;28;20108;-70
2023/02/26 07:13:16;;;;;;;3.43;1.27;;;;;;;-0.17;100.00;100675.09;5013481;28;20088;-70
2023/02/26 07:15:41;;;;;;;2.13;0.87;;;;;;;-0.17;100.00;100676.00;5012806;28;20056;-70
2023/02/26 07:18:07;;;;;;;1.97;0.40;;;;;;;-0.11;100.00;100683.13;5013208;28;20543;-70
2023/02/26 07:20:33;;;;;;;5.37;2.00;;;;;;;-0.06;100.00;100694.56;5012750;28;20477;-70
2023/02/26 07:22:58;;;;;;;1.10;0.30;;;;;;;-0.05;100.00;100693.75;5013362;28;20653;-70
2023/02/26 07:25:24;;;;;;;3.07;1.17;;;;;;;0.03;100.00;100700.13;5012750;28;20173;-70
2023/02/26 07:27:49;;;;;;;4.63;0.70;;;;;;;0.14;100.00;100718.72;5012955;28;20048;-70
2023/02/26 07:30:15;;;;;;;0.83;0.40;;;;;;;0.20;100.00;100719.81;5012798;28;20385;-70
2023/02/26 07:32:41;;;;;;;2.37;0.40;;;;;;;0.29;100.00;100708.91;5010378;28;20077;-70
2023/02/26 07:35:07;;;;;;;3.53;0.40;;;;;;;0.45;100.00;100720.78;5007979;28;20480;-70
2023/02/26 07:37:32;;;;;;;5.23;0.73;;;;;;;0.46;100.00;100719.06;5012281;28;20041;-70
2023/02/26 07:39:57;;;;;;;2.23;0.40;;;;;;;0.31;100.00;100717.63;5012406;28;20044;-70
2023/02/26 07:42:23;;;;;;;1.77;0.80;;;;;;;0.25;100.00;100717.41;5012907;28;20081;-70
2023/02/26 07:44:49;;;;;;;3.27;0.30;;;;;;;0.21;100.00;100716.41;5011649;28;20065;-70
2023/02/26 07:47:15;;;;;;;2.10;0.40;;;;;;;0.11;100.00;100719.47;5012384;28;20461;-70
2023/02/26 07:49:40;;;;;;;2.00;0.50;;;;;;;0.13;100.00;100723.03;5011485;28;20516;-70
2023/02/26 07:52:06;;;;;;;4.60;0.70;;;;;;;0.21;100.00;100725.91;5012738;28;20080;-70
2023/02/26 07:54:33;;;;;;;1.43;0.40;;;;;;;0.17;100.00;100729.22;5012290;28;20037;-70
2023/02/26 07:56:58;;;;;;;1.67;0.37;;;;;;;0.16;100.00;100732.66;5011612;28;20052;-70
2023/02/26 07:59:24;;;;;;;3.20;0.40;;;;;;;0.23;100.00;100739.81;5007813;28;20033;-70
2023/02/26 08:01:50;;;;;;;0.97;0.30;;;;;;;0.30;100.00;100744.44;5012729;28;20049;-70
2023/02/26 08:04:16;;;;;;;3.40;0.60;;;;;;;0.22;100.00;100738.94;5012538;28;20065;-70
2023/02/26 08:06:41;;;;;;;3.23;0.30;;;;;;;0.30;100.00;100747.03;5011900;28;20072;-70
2023/02/26 08:09:06;;;;;;;3.43;0.60;;;;;;;0.27;100.00;100754.69;5012280;28;20038;-70
2023/02/26 08:11:35;;;;;;;4.17;0.70;;;;;;;0.35;100.00;100745.50;5011884;28;20038;-70
2023/02/26 08:14:01;;;;;;;3.00;0.73;;;;;;;0.37;100.00;100759.44;5011955;28;20492;-70
2023/02/26 08:16:26;;;;;;;1.73;0.50;;;;;;;0.33;100.00;100769.63;5011483;28;20088;-70
2023/02/26 08:18:51;;;;;;;1.83;0.23;;;;;;;0.26;100.00;100771.06;5011621;28;20033;-70
2023/02/26 08:21:17;;;;;;;0.67;0.20;;;;;;;0.29;100.00;100773.81;5012074;28;20045;-70
2023/02/26 08:23:42;;;;;;;2.43;0.30;;;;;;;0.36;100.00;100783.59;5011647;28;20034;-70
2023/02/26 08:26:09;;;;;;;9.13;2.63;;;;;;;0.37;100.00;100789.72;5009163;28;20034;-70
2023/02/26 08:28:35;;;;;;;1.47;0.33;;;;;;;0.47;100.00;100794.41;5011776;28;20044;-72
2023/02/26 08:31:01;;;;;;;2.43;0.33;;;;;;;0.59;100.00;100796.59;5011341;28;20439;-70
2023/02/26 08:33:28;;;;;;;2.50;0.77;;;;;;;0.63;100.00;100806.28;5011984;28;20037;-70
2023/02/26 08:35:54;;;;;;;0.90;0.20;;;;;;;0.73;100.00;100805.78;5011384;28;20102;-70
2023/02/26 08:38:20;;;;;;;1.57;0.67;;;;;;;0.71;100.00;100809.16;5011889;28;20042;-70
2023/02/26 08:40:48;;;;;;;5.40;0.53;;;;;;;0.71;100.00;100816.94;5011646;28;20074;-70
2023/02/26 08:43:13;;;;;;;2.20;0.40;;;;;;;0.62;100.00;100812.28;5011926;28;20041;-70
2023/02/26 08:45:39;;;;;;;1.70;0.20;;;;;;;0.67;100.00;100813.34;5010887;28;20046;-70
2023/02/26 08:48:04;;;;;;;3.40;0.20;;;;;;;0.66;100.00;100819.41;5006123;28;20041;-70
2023/02/26 08:50:29;;;;;;;2.10;0.40;;;;;;;0.65;100.00;100823.72;5010422;28;20038;-70
2023/02/26 08:52:55;;;;;;;0.83;0.20;;;;;;;0.64;100.00;100821.03;5011733;28;20037;-70
2023/02/26 08:55:21;;;;;;;4.47;0.90;;;;;;;0.80;100.00;100828.59;5011201;28;20125;-70
2023/02/26 08:57:46;;;;;;;4.63;0.53;;;;;;;0.92;100.00;100822.97;5011599;28;20104;-70
2023/02/26 09:00:15;;;;;;;1.63;0.40;;;;;;;1.00;100.00;100837.16;5011424;28;20686;-70
2023/02/26 09:02:40;;;;;;;1.77;0.90;;;;;;;0.97;100.00;100836.13;5004040;28;20038;-70
2023/02/26 09:05:06;;;;;;;1.07;0.20;;;;;;;0.98;100.00;100844.00;5011474;28;20033;-70
2023/02/26 09:07:31;;;;;;;2.03;0.57;;;;;;;0.92;100.00;100843.78;4993087;28;20488;-70
2023/02/26 09:09:56;;;;;;;2.17;0.30;;;;;;;0.96;100.00;100852.56;5011017;28;20042;-70
2023/02/26 09:12:22;;;;;;;2.92;0.43;;;;;;;0.97;100.00;100865.63;5011496;28;20109;-70
2023/02/26 09:14:47;;;;;;;2.60;0.50;;;;;;;1.06;100.00;100859.88;5011474;28;20116;-70
2023/02/26 09:17:13;;;;;;;3.70;0.73;;;;;;;1.15;100.00;100861.91;4993239;28;20034;-70
2023/02/26 09:19:38;;;;;;;9.50;1.20;;;;;;;1.21;100.00;100878.66;5011257;28;20409;-70
2023/02/26 09:22:04;;;;;;;1.27;0.47;;;;;;;1.38;100.00;100875.78;5010964;28;20033;-70
2023/02/26 09:24:29;;;;;;;2.42;0.40;;;;;;;1.47;100.00;100883.94;5011377;28;20056;-70
2023/02/26 09:26:54;;;;;;;4.55;0.40;;;;;;;1.71;100.00;100882.19;5010821;28;20505;-70
2023/02/26 09:29:20;;;;;;;2.63;0.82;;;;;;;1.74;97.67;100882.28;5013300;28;20510;-70
2023/02/26 09:31:45;;;;;;;3.83;0.93;;;;;;;1.65;98.90;100886.28;5015158;28;20491;-70
2023/02/26 09:34:12;;;;;;;2.15;0.65;;;;;;;1.71;99.12;100897.81;5015363;28;20042;-70
2023/02/26 09:36:38;;;;;;;2.50;0.60;;;;;;;1.89;98.67;100902.78;5014726;28;20060;-70
2023/02/26 09:39:04;;;;;;;1.48;0.38;;;;;;;2.09;97.07;100921.66;5009273;28;20035;-71
2023/02/26 09:41:37;;;;;;;2.83;0.38;;;;;;;2.01;96.05;100907.50;5012918;28;20542;-71
2023/02/26 09:44:15;;;;;;;5.03;1.73;;;;;;;2.01;98.41;100917.91;5014968;28;20529;-71
2023/02/26 09:46:52;;;;;;;1.65;0.38;;;;;;;2.02;95.61;100918.78;5008335;28;20041;-71
2023/02/26 09:49:38;;;;;;;4.57;0.68;;;;;;;2.18;94.96;100915.91;5014997;28;20053;-71
2023/02/26 09:52:34;;;;;;;2.05;0.40;;;;;;;2.49;93.57;100917.81;5009926;28;20103;-71
2023/02/26 09:55:04;;;;;;;2.03;0.30;;;;;;;2.42;95.51;100924.53;5010599;28;20046;-71
2023/02/26 09:57:35;;;;;;;0.70;0.30;;;;;;;2.35;92.73;100930.38;5014222;28;20041;-71
2023/02/26 10:00:06;;;;;;;1.33;0.30;;;;;;;2.16;94.64;100931.47;5014217;28;20029;-71
2023/02/26 10:02:49;;;;;;;3.85;0.57;;;;;;;2.31;95.54;100938.03;5008531;28;20140;-71
2023/02/26 10:05:32;;;;;;;1.05;0.22;;;;;;;2.42;94.15;100937.56;5014832;28;20038;-71
2023/02/26 10:08:10;;;;;;;1.80;0.30;;;;;;;2.37;93.83;100936.50;5009202;28;20096;-71
2023/02/26 10:10:38;;;;;;;3.25;0.55;;;;;;;2.36;95.84;100941.69;5014531;28;20488;-71
2023/02/26 10:13:04;;;;;;;1.17;0.30;;;;;;;2.50;95.21;100939.53;5014591;28;20056;-71
2023/02/26 10:15:39;;;;;;;1.35;0.43;;;;;;;2.60;94.22;100933.78;5014018;28;20029;-71
2023/02/26 10:18:19;;;;;;;6.95;0.70;;;;;;;2.60;90.63;100939.00;5008154;28;20049;-71
2023/02/26 10:20:58;;;;;;;1.60;0.30;;;;;;;2.72;88.70;100946.31;5012386;28;20029;-71
2023/02/26 10:23:55;;;;;;;2.25;0.28;;;;;;;2.71;84.83;100944.56;5008655;28;20037;-71
2023/02/26 10:26:28;;;;;;;3.17;0.73;;;;;;;2.88;89.13;100947.69;5008958;28;20038;-71
2023/02/26 10:29:20;;;;;;;1.10;0.40;;;;;;;3.07;88.90;100955.28;5013921;28;20038;-71
2023/02/26 10:32:04;;;;;;;2.97;0.60;;;;;;;3.07;88.71;100956.16;5010928;28;20042;-71
2023/02/26 10:34:55;;;;;;;1.52;0.32;;;;;;;3.12;89.11;100956.31;5008297;28;20044;-71
2023/02/26 10:37:47;;;;;;;2.75;0.40;;;;;;;2.79;85.84;100962.22;5006577;28;20038;-71
2023/02/26 10:40:22;;;;;;;3.10;0.60;;;;;;;2.62;85.00;100964.28;5006152;28;20041;-71
2023/02/26 10:42:54;;;;;;;4.53;0.57;;;;;;;2.52;85.71;100974.34;5014199;28;20037;-71
2023/02/26 10:45:32;;;;;;;1.20;0.28;;;;;;;2.74;86.37;100975.94;5013597;28;20155;-71
2023/02/26 10:48:09;;;;;;;1.30;0.20;;;;;;;2.84;84.59;100991.91;5007266;28;20030;-71
2023/02/26 10:50:36;;;;;;;2.88;0.70;;;;;;;2.62;83.43;100986.84;5013594;28;20038;-72
2023/02/26 10:53:02;;;;;;;3.97;0.80;;;;;;;2.75;86.20;100972.47;5013667;28;20080;-71
2023/02/26 10:55:49;;;;;;;0.82;0.35;;;;;;;2.83;83.37;100977.13;5012357;28;20137;-71
2023/02/26 10:58:22;;;;;;;3.08;0.60;;;;;;;2.96;84.39;100986.22;5012166;28;20046;-71
2023/02/26 11:00:52;;;;;;;1.35;0.40;;;;;;;3.14;82.86;100987.63;5013642;28;20447;-71
2023/02/26 11:03:26;;;;;;;2.22;0.60;;;;;;;3.00;81.69;100998.50;5007941;28;20045;-71
2023/02/26 11:05:51;;;;;;;1.73;0.40;;;;;;;2.70;82.40;101000.09;5006762;28;20586;-71
2023/02/26 11:08:26;;;;;;;3.50;0.45;;;;;;;2.76;84.60;101000.34;5013185;28;20034;-71
2023/02/26 11:10:57;;;;;;;3.28;0.40;;;;;;;3.02;85.27;101003.78;5013196;28;20481;-71
2023/02/26 11:13:25;;;;;;;3.35;0.47;;;;;;;2.97;82.20;101008.84;5013291;28;20488;-71
2023/02/26 11:15:53;;;;;;;0.93;0.20;;;;;;;2.97;82.89;101006.25;5012817;28;20041;-71
2023/02/26 11:18:25;;;;;;;1.00;0.22;;;;;;;2.97;83.06;101001.03;5013431;28;20030;-71
2023/02/26 11:20:55;;;;;;;2.40;0.20;;;;;;;3.04;81.63;101013.44;5007299;28;20030;-71
2023/02/26 11:23:24;;;;;;;1.25;0.32;;;;;;;2.97;84.03;101005.38;5013516;28;20065;-71
2023/02/26 11:26:01;;;;;;;3.45;1.02;;;;;;;3.20;81.83;101006.09;5012732;28;20034;-71
2023/02/26 11:28:35;;;;;;;3.28;0.20;;;;;;;3.29;82.59;101007.25;5012729;28;20041;-71
2023/02/26 11:31:05;;;;;;;1.50;0.28;;;;;;;3.61;82.72;101001.22;5007050;28;20504;-71
2023/02/26 11:33:44;;;;;;;3.30;0.40;;;;;;;3.84;81.90;101005.41;5013163;28;20071;-71
2023/02/26 11:36:16;;;;;;;2.17;0.88;;;;;;;3.67;80.57;101009.25;5012629;28;20049;-71